sensor_id;sensor_type;location;lat;lon;timestamp;pressure;altitude;pressure_sealevel;temperature;humidity
22605;BME280;11469;49.024;8.246;2022-11-11T00:00:30;101908.53;;;4.59;100.00
22605;BME280;11469;49.024;8.246;2022-11-11T00:02:56;101898.81;;;4.57;100.00
22605;BME280;11469;49.024;8.246;2022-11-11T00:05:23;101893.81;;;4.54;100.00
22605;BME280;11469;49.024;8.246;2022-11-11T00:07:51;101902.72;;;4.51;100.00
22605;BME280;11469;49.024;8.246;2022-11-11T00:10:17;101903.28;;;4.53;100.00
22605;BME280;11469;49.024;8.246;2022-11-11T00:12:43;101907.75;;;4.49;100.00
22605;BME280;11469;49.024;8.246;2022-11-11T00:15:08;101898.25;;;4.55;100.00
22605;BME280;11469;49.024;8.246;2022-11-11T00:17:33;101894.13;;;4.52;100.00
22605;BME280;11469;49.024;8.246;2022-11-11T00:20:17;101895.78;;;4.48;100.00
22605;BME280;11469;49.024;8.246;2022-11-11T00:23:02;101902.47;;;4.42;100.00
22605;BME280;11469;49.024;8.246;2022-11-11T00:25:50;101904.41;;;4.47;100.00
22605;BME280;11469;49.024;8.246;2022-11-11T00:28:17;101909.41;;;4.45;100.00
22605;BME280;11469;49.024;8.246;2022-11-11T00:30:42;101901.97;;;4.30;100.00
22605;BME280;11469;49.024;8.246;2022-11-11T00:33:07;101905.38;;;4.22;100.00
22605;BME280;11469;49.024;8.246;2022-11-11T00:35:33;101909.81;;;4.23;100.00
22605;BME280;11469;49.024;8.246;2022-11-11T00:38:17;101911.75;;;4.17;100.00
22605;BME280;11469;49.024;8.246;2022-11-11T00:41:01;101909.25;;;4.16;100.00
22605;BME280;11469;49.024;8.246;2022-11-11T00:43:26;101920.66;;;4.14;100.00
22605;BME280;11469;49.024;8.246;2022-11-11T00:45:52;101909.81;;;4.13;100.00
22605;BME280;11469;49.024;8.246;2022-11-11T00:48:17;101916.22;;;4.08;100.00
22605;BME280;11469;49.024;8.246;2022-11-11T00:51:01;101916.22;;;4.08;100.00
22605;BME280;11469;49.024;8.246;2022-11-11T00:53:30;101918.44;;;4.06;100.00
22605;BME280;11469;49.024;8.246;2022-11-11T00:55:57;101920.38;;;4.06;100.00
22605;BME280;11469;49.024;8.246;2022-11-11T00:58:22;101933.44;;;4.05;100.00
22605;BME280;11469;49.024;8.246;2022-11-11T01:00:48;101926.50;;;4.03;100.00
22605;BME280;11469;49.024;8.246;2022-11-11T01:03:20;101932.88;;;3.98;100.00
22605;BME280;11469;49.024;8.246;2022-11-11T01:05:46;101937.31;;;4.14;100.00
22605;BME280;11469;49.024;8.246;2022-11-11T01:08:12;101933.72;;;4.04;100.00
22605;BME280;11469;49.024;8.246;2022-11-11T01:10:38;101928.44;;;3.97;100.00
22605;BME280;11469;49.024;8.246;2022-11-11T01:13:32;101925.94;;;3.95;100.00
22605;BME280;11469;49.024;8.246;2022-11-11T01:16:06;101926.50;;;3.97;100.00
22605;BME280;11469;49.024;8.246;2022-11-11T01:18:32;101923.44;;;3.99;100.00
22605;BME280;11469;49.024;8.246;2022-11-11T01:21:03;101928.16;;;3.98;100.00
22605;BME280;11469;49.024;8.246;2022-11-11T01:23:30;101931.78;;;3.99;100.00
22605;BME280;11469;49.024;8.246;2022-11-11T01:26:01;101934.00;;;3.97;100.00
22605;BME280;11469;49.024;8.246;2022-11-11T01:28:27;101942.59;;;3.95;100.00
22605;BME280;11469;49.024;8.246;2022-11-11T01:30:53;101934.84;;;3.97;100.00
22605;BME280;11469;49.024;8.246;2022-11-11T01:33:18;101928.72;;;3.95;100.00
22605;BME280;11469;49.024;8.246;2022-11-11T01:35:43;101936.22;;;3.95;100.00
22605;BME280;11469;49.024;8.246;2022-11-11T01:38:09;101925.69;;;3.92;100.00
22605;BME280;11469;49.024;8.246;2022-11-11T01:40:45;101929.56;;;3.86;100.00
22605;BME280;11469;49.024;8.246;2022-11-11T01:48:33;101949.00;;;3.86;100.00
22605;BME280;11469;49.024;8.246;2022-11-11T01:51:29;101955.38;;;3.86;100.00
22605;BME280;11469;49.024;8.246;2022-11-11T01:53:59;101952.88;;;3.85;100.00
22605;BME280;11469;49.024;8.246;2022-11-11T01:56:26;101957.03;;;3.82;100.00
22605;BME280;11469;49.024;8.246;2022-11-11T01:58:55;101955.66;;;3.85;100.00
22605;BME280;11469;49.024;8.246;2022-11-11T02:01:22;101955.66;;;3.85;100.00
22605;BME280;11469;49.024;8.246;2022-11-11T02:03:50;101939.28;;;3.83;100.00
22605;BME280;11469;49.024;8.246;2022-11-11T02:06:35;101935.13;;;3.81;100.00
22605;BME280;11469;49.024;8.246;2022-11-11T02:09:02;101945.97;;;3.77;100.00
22605;BME280;11469;49.024;8.246;2022-11-11T02:11:30;101944.31;;;3.76;100.00
22605;BME280;11469;49.024;8.246;2022-11-11T02:14:15;101947.09;;;3.76;100.00
22605;BME280;11469;49.024;8.246;2022-11-11T02:17:00;101950.16;;;3.70;100.00
22605;BME280;11469;49.024;8.246;2022-11-11T02:19:53;101939.88;;;3.70;100.00
22605;BME280;11469;49.024;8.246;2022-11-11T02:22:48;101941.00;;;3.69;100.00
22605;BME280;11469;49.024;8.246;2022-11-11T02:25:18;101938.22;;;3.69;100.00
22605;BME280;11469;49.024;8.246;2022-11-11T02:27:47;101939.59;;;3.72;100.00
22605;BME280;11469;49.024;8.246;2022-11-11T02:30:15;101937.94;;;3.65;100.00
22605;BME280;11469;49.024;8.246;2022-11-11T02:32:42;101938.22;;;3.59;100.00
22605;BME280;11469;49.024;8.246;2022-11-11T02:38:32;101936.00;;;3.46;100.00
22605;BME280;11469;49.024;8.246;2022-11-11T02:40:57;101936.81;;;3.36;100.00
22605;BME280;11469;49.024;8.246;2022-11-11T02:43:41;101939.88;;;3.34;100.00
22605;BME280;11469;49.024;8.246;2022-11-11T02:46:07;101933.78;;;3.27;100.00
22605;BME280;11469;49.024;8.246;2022-11-11T02:48:32;101941.25;;;3.22;100.00
22605;BME280;11469;49.024;8.246;2022-11-11T02:50:57;101934.06;;;3.21;100.00
22605;BME280;11469;49.024;8.246;2022-11-11T02:53:23;101929.63;;;3.25;100.00
22605;BME280;11469;49.024;8.246;2022-11-11T02:55:49;101931.03;;;3.27;100.00
22605;BME280;11469;49.024;8.246;2022-11-11T02:58:15;101934.63;;;3.28;100.00
22605;BME280;11469;49.024;8.246;2022-11-11T03:00:41;101942.09;;;3.22;100.00
22605;BME280;11469;49.024;8.246;2022-11-11T03:03:09;101947.66;;;3.27;100.00
22605;BME280;11469;49.024;8.246;2022-11-11T03:05:35;101936.56;;;3.22;100.00
22605;BME280;11469;49.024;8.246;2022-11-11T03:08:01;101944.31;;;3.25;100.00
22605;BME280;11469;49.024;8.246;2022-11-11T03:10:26;101938.22;;;3.28;100.00
22605;BME280;11469;49.024;8.246;2022-11-11T03:12:52;101936.53;;;3.32;100.00
22605;BME280;11469;49.024;8.246;2022-11-11T03:15:17;101930.72;;;3.34;100.00
22605;BME280;11469;49.024;8.246;2022-11-11T03:17:42;101926.56;;;3.31;100.00
22605;BME280;11469;49.024;8.246;2022-11-11T03:20:11;101919.66;;;3.29;100.00
22605;BME280;11469;49.024;8.246;2022-11-11T03:23:08;101923.25;;;3.19;100.00
22605;BME280;11469;49.024;8.246;2022-11-11T03:25:38;101932.38;;;3.15;100.00
22605;BME280;11469;49.024;8.246;2022-11-11T03:28:11;101930.16;;;3.17;100.00
22605;BME280;11469;49.024;8.246;2022-11-11T03:30:42;101936.00;;;3.20;100.00
22605;BME280;11469;49.024;8.246;2022-11-11T03:33:08;101946.25;;;3.25;100.00
22605;BME280;11469;49.024;8.246;2022-11-11T03:35:34;101961.78;;;3.26;100.00
22605;BME280;11469;49.024;8.246;2022-11-11T03:38:00;101964.00;;;3.29;100.00
22605;BME280;11469;49.024;8.246;2022-11-11T03:40:50;101969.53;;;3.34;100.00
22605;BME280;11469;49.024;8.246;2022-11-11T03:43:18;101960.38;;;3.33;100.00
22605;BME280;11469;49.024;8.246;2022-11-11T03:45:44;101976.16;;;3.33;100.00
22605;BME280;11469;49.024;8.246;2022-11-11T03:48:10;101985.59;;;3.42;100.00
22605;BME280;11469;49.024;8.246;2022-11-11T03:50:36;101985.88;;;3.41;100.00
22605;BME280;11469;49.024;8.246;2022-11-11T03:53:02;101988.09;;;3.44;100.00
22605;BME280;11469;49.024;8.246;2022-11-11T03:55:27;101983.69;;;3.48;100.00
22605;BME280;11469;49.024;8.246;2022-11-11T03:57:53;101993.38;;;3.50;100.00
22605;BME280;11469;49.024;8.246;2022-11-11T04:00:21;101998.94;;;3.65;100.00
22605;BME280;11469;49.024;8.246;2022-11-11T04:02:47;102002.53;;;3.61;100.00
22605;BME280;11469;49.024;8.246;2022-11-11T04:05:31;102003.66;;;3.70;100.00
22605;BME280;11469;49.024;8.246;2022-11-11T04:08:17;102002.81;;;3.64;100.00
22605;BME280;11469;49.024;8.246;2022-11-11T04:11:13;102001.13;;;3.79;100.00
22605;BME280;11469;49.024;8.246;2022-11-11T04:13:40;102006.13;;;3.82;100.00
22605;BME280;11469;49.024;8.246;2022-11-11T04:16:25;102006.41;;;3.80;100.00
22605;BME280;11469;49.024;8.246;2022-11-11T04:18:51;102008.63;;;3.78;100.00
22605;BME280;11469;49.024;8.246;2022-11-11T04:21:35;102017.22;;;3.82;100.00
22605;BME280;11469;49.024;8.246;2022-11-11T04:24:16;102018.63;;;3.89;100.00
22605;BME280;11469;49.024;8.246;2022-11-11T04:27:03;102014.75;;;3.95;100.00
22605;BME280;11469;49.024;8.246;2022-11-11T04:29:29;102015.28;;;4.03;100.00
22605;BME280;11469;49.024;8.246;2022-11-11T04:32:06;102020.56;;;4.09;100.00
22605;BME280;11469;49.024;8.246;2022-11-11T04:34:56;102030.00;;;4.18;100.00
22605;BME280;11469;49.024;8.246;2022-11-11T04:37:23;102026.94;;;4.25;100.00
22605;BME280;11469;49.024;8.246;2022-11-11T04:39:49;102024.13;;;4.30;100.00
22605;BME280;11469;49.024;8.246;2022-11-11T04:42:33;102013.84;;;4.36;100.00
22605;BME280;11469;49.024;8.246;2022-11-11T04:45:00;102014.66;;;4.41;100.00
22605;BME280;11469;49.024;8.246;2022-11-11T04:50:25;102018.25;;;4.52;100.00
22605;BME280;11469;49.024;8.246;2022-11-11T04:52:50;102023.22;;;4.55;100.00
22605;BME280;11469;49.024;8.246;2022-11-11T04:55:16;102028.22;;;4.58;100.00
22605;BME280;11469;49.024;8.246;2022-11-11T04:58:01;102043.75;;;4.64;100.00
22605;BME280;11469;49.024;8.246;2022-11-11T05:00:26;102047.34;;;4.70;100.00
22605;BME280;11469;49.024;8.246;2022-11-11T05:02:55;102041.75;;;4.75;100.00
22605;BME280;11469;49.024;8.246;2022-11-11T05:05:44;102041.75;;;4.80;100.00
22605;BME280;11469;49.024;8.246;2022-11-11T05:08:28;102048.16;;;4.75;100.00
22605;BME280;11469;49.024;8.246;2022-11-11T05:11:13;102046.75;;;4.73;100.00
22605;BME280;11469;49.024;8.246;2022-11-11T05:13:38;102059.59;;;4.69;100.00
22605;BME280;11469;49.024;8.246;2022-11-11T05:16:26;102064.03;;;4.70;100.00
22605;BME280;11469;49.024;8.246;2022-11-11T05:19:10;102070.69;;;4.69;100.00
22605;BME280;11469;49.024;8.246;2022-11-11T05:21:58;102064.84;;;4.70;100.00
22605;BME280;11469;49.024;8.246;2022-11-11T05:24:25;102068.47;;;4.71;100.00
22605;BME280;11469;49.024;8.246;2022-11-11T05:27:10;102068.97;;;4.73;100.00
22605;BME280;11469;49.024;8.246;2022-11-11T05:29:35;102075.66;;;4.77;100.00
22605;BME280;11469;49.024;8.246;2022-11-11T05:32:01;102073.41;;;4.79;100.00
22605;BME280;11469;49.024;8.246;2022-11-11T05:34:26;102074.50;;;4.83;100.00
22605;BME280;11469;49.024;8.246;2022-11-11T05:36:52;102073.41;;;4.84;100.00
22605;BME280;11469;49.024;8.246;2022-11-11T05:39:17;102078.09;;;4.88;100.00
22605;BME280;11469;49.024;8.246;2022-11-11T05:41:42;102076.44;;;4.92;100.00
22605;BME280;11469;49.024;8.246;2022-11-11T05:44:08;102067.53;;;4.95;100.00
22605;BME280;11469;49.024;8.246;2022-11-11T05:46:33;102069.19;;;4.96;100.00
22605;BME280;11469;49.024;8.246;2022-11-11T05:48:58;102075.84;;;5.00;100.00
22605;BME280;11469;49.024;8.246;2022-11-11T05:51:39;102070.28;;;5.06;100.00
22605;BME280;11469;49.024;8.246;2022-11-11T05:54:04;102074.97;;;5.10;100.00
22605;BME280;11469;49.024;8.246;2022-11-11T05:56:30;102073.88;;;5.11;100.00
22605;BME280;11469;49.024;8.246;2022-11-11T05:58:55;102079.41;;;5.16;100.00
22605;BME280;11469;49.024;8.246;2022-11-11T06:01:21;102078.84;;;5.19;100.00
22605;BME280;11469;49.024;8.246;2022-11-11T06:03:46;102081.00;;;5.22;100.00
22605;BME280;11469;49.024;8.246;2022-11-11T06:06:12;102084.06;;;5.26;100.00
22605;BME280;11469;49.024;8.246;2022-11-11T06:08:37;102075.97;;;5.29;100.00
22605;BME280;11469;49.024;8.246;2022-11-11T06:11:03;102082.63;;;5.33;100.00
22605;BME280;11469;49.024;8.246;2022-11-11T06:13:28;102089.84;;;5.40;100.00
22605;BME280;11469;49.024;8.246;2022-11-11T06:15:55;102090.09;;;5.43;100.00
22605;BME280;11469;49.024;8.246;2022-11-11T06:18:21;102094.53;;;5.44;100.00
22605;BME280;11469;49.024;8.246;2022-11-11T06:20:52;102097.59;;;5.48;100.00
22605;BME280;11469;49.024;8.246;2022-11-11T06:23:17;102100.63;;;5.51;100.00
22605;BME280;11469;49.024;8.246;2022-11-11T06:25:43;102103.94;;;5.53;100.00
22605;BME280;11469;49.024;8.246;2022-11-11T06:28:27;102096.97;;;5.56;100.00
22605;BME280;11469;49.024;8.246;2022-11-11T06:30:52;102104.22;;;5.57;100.00
22605;BME280;11469;49.024;8.246;2022-11-11T06:33:18;102106.16;;;5.56;100.00
22605;BME280;11469;49.024;8.246;2022-11-11T06:35:44;102111.72;;;5.56;100.00
22605;BME280;11469;49.024;8.246;2022-11-11T06:38:10;102106.16;;;5.56;100.00
22605;BME280;11469;49.024;8.246;2022-11-11T06:40:35;102116.16;;;5.57;100.00
22605;BME280;11469;49.024;8.246;2022-11-11T06:43:00;102115.06;;;5.58;100.00
22605;BME280;11469;49.024;8.246;2022-11-11T06:45:28;102116.13;;;5.62;100.00
22605;BME280;11469;49.024;8.246;2022-11-11T06:47:53;102113.34;;;5.62;100.00
22605;BME280;11469;49.024;8.246;2022-11-11T06:50:19;102122.28;;;5.59;100.00
22605;BME280;11469;49.024;8.246;2022-11-11T06:52:45;102121.44;;;5.59;100.00
22605;BME280;11469;49.024;8.246;2022-11-11T06:55:11;102122.28;;;5.59;100.00
22605;BME280;11469;49.024;8.246;2022-11-11T06:57:37;102117.25;;;5.61;100.00
22605;BME280;11469;49.024;8.246;2022-11-11T07:00:06;102119.22;;;5.56;100.00
22605;BME280;11469;49.024;8.246;2022-11-11T07:02:32;102120.91;;;5.57;100.00
22605;BME280;11469;49.024;8.246;2022-11-11T07:04:58;102127.56;;;5.56;100.00
22605;BME280;11469;49.024;8.246;2022-11-11T07:07:24;102123.97;;;5.55;100.00
22605;BME280;11469;49.024;8.246;2022-11-11T07:09:49;102126.19;;;5.58;100.00
22605;BME280;11469;49.024;8.246;2022-11-11T07:12:15;102125.88;;;5.60;100.00
22605;BME280;11469;49.024;8.246;2022-11-11T07:14:40;102127.84;;;5.59;100.00
22605;BME280;11469;49.024;8.246;2022-11-11T07:17:06;102134.22;;;5.65;100.00
22605;BME280;11469;49.024;8.246;2022-11-11T07:19:31;102131.44;;;5.65;100.00
22605;BME280;11469;49.024;8.246;2022-11-11T07:21:56;102138.59;;;5.71;100.00
22605;BME280;11469;49.024;8.246;2022-11-11T07:24:22;102133.28;;;5.75;100.00
22605;BME280;11469;49.024;8.246;2022-11-11T07:26:47;102142.47;;;5.75;100.00
22605;BME280;11469;49.024;8.246;2022-11-11T07:29:13;102138.84;;;5.75;100.00
22605;BME280;11469;49.024;8.246;2022-11-11T07:31:40;102131.91;;;5.72;100.00
22605;BME280;11469;49.024;8.246;2022-11-11T07:34:06;102130.50;;;5.75;100.00
22605;BME280;11469;49.024;8.246;2022-11-11T07:36:31;102135.44;;;5.88;100.00
22605;BME280;11469;49.024;8.246;2022-11-11T07:38:56;102137.34;;;5.97;100.00
22605;BME280;11469;49.024;8.246;2022-11-11T07:41:22;102139.06;;;5.93;100.00
22605;BME280;11469;49.024;8.246;2022-11-11T07:43:47;102147.41;;;5.88;100.00
22605;BME280;11469;49.024;8.246;2022-11-11T07:46:13;102149.09;;;5.84;100.00
22605;BME280;11469;49.024;8.246;2022-11-11T07:48:38;102150.19;;;5.88;100.00
22605;BME280;11469;49.024;8.246;2022-11-11T07:51:04;102151.59;;;5.91;100.00
22605;BME280;11469;49.024;8.246;2022-11-11T07:53:30;102144.63;;;5.93;100.00
22605;BME280;11469;49.024;8.246;2022-11-11T07:55:55;102152.13;;;5.88;100.00
22605;BME280;11469;49.024;8.246;2022-11-11T07:58:21;102144.63;;;5.93;100.00
22605;BME280;11469;49.024;8.246;2022-11-11T08:00:46;102143.22;;;5.96;100.00
22605;BME280;11469;49.024;8.246;2022-11-11T08:03:12;102152.94;;;5.98;100.00
22605;BME280;11469;49.024;8.246;2022-11-11T08:05:37;102151.53;;;6.01;100.00
22605;BME280;11469;49.024;8.246;2022-11-11T08:08:06;102150.38;;;6.07;100.00
22605;BME280;11469;49.024;8.246;2022-11-11T08:10:33;102154.34;;;5.96;100.00
22605;BME280;11469;49.024;8.246;2022-11-11T08:12:59;102163.00;;;5.89;100.00
22605;BME280;11469;49.024;8.246;2022-11-11T08:15:43;102154.63;;;5.94;100.00
22605;BME280;11469;49.024;8.246;2022-11-11T08:18:08;102155.47;;;5.95;100.00
22605;BME280;11469;49.024;8.246;2022-11-11T08:20:34;102150.69;;;6.01;100.00
22605;BME280;11469;49.024;8.246;2022-11-11T08:23:00;102146.72;;;6.12;100.00
22605;BME280;11469;49.024;8.246;2022-11-11T08:25:28;102145.31;;;6.14;100.00
22605;BME280;11469;49.024;8.246;2022-11-11T08:28:03;102141.94;;;6.17;100.00
22605;BME280;11469;49.024;8.246;2022-11-11T08:30:29;102144.41;;;6.19;100.00
22605;BME280;11469;49.024;8.246;2022-11-11T08:32:59;102148.84;;;6.25;100.00
22605;BME280;11469;49.024;8.246;2022-11-11T08:35:25;102142.69;;;6.28;100.00
22605;BME280;11469;49.024;8.246;2022-11-11T08:37:51;102144.59;;;6.32;100.00
22605;BME280;11469;49.024;8.246;2022-11-11T08:40:16;102143.47;;;6.33;100.00
22605;BME280;11469;49.024;8.246;2022-11-11T08:42:42;102142.91;;;6.37;100.00
22605;BME280;11469;49.024;8.246;2022-11-11T08:45:08;102137.28;;;6.42;100.00
22605;BME280;11469;49.024;8.246;2022-11-11T08:47:34;102135.00;;;6.49;100.00
22605;BME280;11469;49.024;8.246;2022-11-11T08:50:01;102134.69;;;6.50;100.00
22605;BME280;11469;49.024;8.246;2022-11-11T08:52:26;102138.59;;;6.49;100.00
22605;BME280;11469;49.024;8.246;2022-11-11T08:54:51;102139.94;;;6.57;100.00
22605;BME280;11469;49.024;8.246;2022-11-11T08:57:17;102153.22;;;6.65;100.00
22605;BME280;11469;49.024;8.246;2022-11-11T08:59:42;102147.28;;;6.72;100.00
22605;BME280;11469;49.024;8.246;2022-11-11T09:02:11;102151.94;;;6.81;100.00
22605;BME280;11469;49.024;8.246;2022-11-11T09:04:38;102147.97;;;6.87;100.00
22605;BME280;11469;49.024;8.246;2022-11-11T09:07:04;102151.31;;;6.89;100.00
22605;BME280;11469;49.024;8.246;2022-11-11T09:09:30;102158.53;;;6.90;100.00
22605;BME280;11469;49.024;8.246;2022-11-11T09:11:55;102161.19;;;6.77;100.00
22605;BME280;11469;49.024;8.246;2022-11-11T09:14:20;102155.22;;;6.88;100.00
22605;BME280;11469;49.024;8.246;2022-11-11T09:16:46;102162.09;;;6.96;100.00
22605;BME280;11469;49.024;8.246;2022-11-11T09:19:11;102159.06;;;6.92;100.00
22605;BME280;11469;49.024;8.246;2022-11-11T09:21:37;102162.94;;;6.96;100.00
22605;BME280;11469;49.024;8.246;2022-11-11T09:24:02;102150.53;;;6.84;100.00
22605;BME280;11469;49.024;8.246;2022-11-11T09:26:28;102146.31;;;6.86;100.00
22605;BME280;11469;49.024;8.246;2022-11-11T09:28:53;102146.06;;;6.83;100.00
22605;BME280;11469;49.024;8.246;2022-11-11T09:31:18;102151.59;;;6.88;100.00
22605;BME280;11469;49.024;8.246;2022-11-11T09:33:44;102155.16;;;6.93;100.00
22605;BME280;11469;49.024;8.246;2022-11-11T09:36:09;102151.16;;;7.05;100.00
22605;BME280;11469;49.024;8.246;2022-11-11T09:38:35;102147.44;;;7.09;100.00
22605;BME280;11469;49.024;8.246;2022-11-11T09:41:14;102153.84;;;7.10;100.00
22605;BME280;11469;49.024;8.246;2022-11-11T09:43:51;102148.59;;;7.08;100.00
22605;BME280;11469;49.024;8.246;2022-11-11T09:54:44;102162.28;;;7.28;100.00
22605;BME280;11469;49.024;8.246;2022-11-11T09:57:40;102163.16;;;7.24;100.00
22605;BME280;11469;49.024;8.246;2022-11-11T10:00:28;102155.69;;;7.19;100.00
22605;BME280;11469;49.024;8.246;2022-11-11T10:03:10;102161.75;;;7.26;100.00
22605;BME280;11469;49.024;8.246;2022-11-11T10:08:43;102155.81;;;7.33;100.00
22605;BME280;11469;49.024;8.246;2022-11-11T10:11:15;102155.09;;;7.46;100.00
22605;BME280;11469;49.024;8.246;2022-11-11T10:13:43;102157.22;;;7.54;100.00
22605;BME280;11469;49.024;8.246;2022-11-11T10:21:54;102153.75;;;7.62;100.00
22605;BME280;11469;49.024;8.246;2022-11-11T10:24:28;102153.09;;;7.71;100.00
22605;BME280;11469;49.024;8.246;2022-11-11T10:26:54;102160.16;;;7.63;100.00
22605;BME280;11469;49.024;8.246;2022-11-11T10:29:21;102159.84;;;7.64;100.00
22605;BME280;11469;49.024;8.246;2022-11-11T10:31:56;102156.19;;;7.88;100.00
22605;BME280;11469;49.024;8.246;2022-11-11T10:34:31;102157.03;;;7.88;100.00
22605;BME280;11469;49.024;8.246;2022-11-11T10:36:57;102158.75;;;7.84;100.00
22605;BME280;11469;49.024;8.246;2022-11-11T10:39:40;102157.94;;;7.84;100.00
22605;BME280;11469;49.024;8.246;2022-11-11T10:42:13;102153.69;;;7.86;100.00
22605;BME280;11469;49.024;8.246;2022-11-11T10:44:41;102157.72;;;7.99;100.00
22605;BME280;11469;49.024;8.246;2022-11-11T10:49:52;102152.19;;;7.94;100.00
22605;BME280;11469;49.024;8.246;2022-11-11T10:52:55;102149.94;;;7.96;100.00
22605;BME280;11469;49.024;8.246;2022-11-11T10:55:21;102147.97;;;7.96;100.00
22605;BME280;11469;49.024;8.246;2022-11-11T11:00:16;102152.03;;;8.04;100.00
22605;BME280;11469;49.024;8.246;2022-11-11T11:05:30;102133.69;;;8.17;100.00
22605;BME280;11469;49.024;8.246;2022-11-11T11:08:11;102134.88;;;8.11;100.00
22605;BME280;11469;49.024;8.246;2022-11-11T11:10:42;102132.53;;;8.18;100.00
22605;BME280;11469;49.024;8.246;2022-11-11T11:13:40;102128.31;;;8.20;100.00
22605;BME280;11469;49.024;8.246;2022-11-11T11:16:23;102129.44;;;8.19;100.00
22605;BME280;11469;49.024;8.246;2022-11-11T11:21:50;102130.63;;;8.32;100.00
22605;BME280;11469;49.024;8.246;2022-11-11T11:26:52;102111.47;;;8.44;100.00
22605;BME280;11469;49.024;8.246;2022-11-11T11:32:17;102117.88;;;8.45;100.00
22605;BME280;11469;49.024;8.246;2022-11-11T11:34:50;102115.63;;;8.47;100.00
22605;BME280;11469;49.024;8.246;2022-11-11T11:37:17;102113.22;;;8.21;100.00
22605;BME280;11469;49.024;8.246;2022-11-11T11:39:44;102109.91;;;8.19;100.00
22605;BME280;11469;49.024;8.246;2022-11-11T11:42:29;102110.34;;;8.26;100.00
22605;BME280;11469;49.024;8.246;2022-11-11T11:44:55;102102.25;;;8.25;100.00
22605;BME280;11469;49.024;8.246;2022-11-11T11:50:20;102098.63;;;8.24;100.00
22605;BME280;11469;49.024;8.246;2022-11-11T11:55:43;102097.41;;;8.30;100.00
22605;BME280;11469;49.024;8.246;2022-11-11T12:06:24;102099.78;;;8.23;100.00
22605;BME280;11469;49.024;8.246;2022-11-11T12:08:56;102104.22;;;8.24;100.00
22605;BME280;11469;49.024;8.246;2022-11-11T12:16:54;102110.34;;;8.26;100.00
22605;BME280;11469;49.024;8.246;2022-11-11T12:22:23;102099.06;;;8.31;100.00
22605;BME280;11469;49.024;8.246;2022-11-11T12:27:41;102105.50;;;8.32;100.00
22605;BME280;11469;49.024;8.246;2022-11-11T12:30:17;102115.78;;;8.37;100.00
22605;BME280;11469;49.024;8.246;2022-11-11T12:33:08;102108.91;;;8.29;100.00
22605;BME280;11469;49.024;8.246;2022-11-11T12:38:31;102112.53;;;8.29;100.00
22605;BME280;11469;49.024;8.246;2022-11-11T12:44:28;102103.63;;;8.27;100.00
22605;BME280;11469;49.024;8.246;2022-11-11T12:57:28;102103.25;;;8.34;100.00
22605;BME280;11469;49.024;8.246;2022-11-11T13:02:42;102110.50;;;8.35;100.00
22605;BME280;11469;49.024;8.246;2022-11-11T13:05:14;102100.28;;;8.44;100.00
22605;BME280;11469;49.024;8.246;2022-11-11T13:08:08;102101.53;;;8.52;100.00
22605;BME280;11469;49.024;8.246;2022-11-11T13:13:57;102104.53;;;8.55;100.00
22605;BME280;11469;49.024;8.246;2022-11-11T13:16:29;102109.91;;;8.52;100.00
22605;BME280;11469;49.024;8.246;2022-11-11T13:18:56;102118.94;;;8.62;100.00
22605;BME280;11469;49.024;8.246;2022-11-11T13:21:28;102119.03;;;8.57;100.00
22605;BME280;11469;49.024;8.246;2022-11-11T13:23:55;102121.91;;;8.52;100.00
22605;BME280;11469;49.024;8.246;2022-11-11T13:26:35;102115.00;;;8.50;100.00
22605;BME280;11469;49.024;8.246;2022-11-11T13:31:50;102113.44;;;8.44;100.00
22605;BME280;11469;49.024;8.246;2022-11-11T13:34:17;102106.72;;;8.45;100.00
22605;BME280;11469;49.024;8.246;2022-11-11T13:36:52;102112.59;;;8.43;100.00
22605;BME280;11469;49.024;8.246;2022-11-11T13:41:50;102102.78;;;8.59;100.00
22605;BME280;11469;49.024;8.246;2022-11-11T13:44:27;102097.94;;;8.65;100.00
22605;BME280;11469;49.024;8.246;2022-11-11T13:47:18;102098.56;;;8.76;100.00
22605;BME280;11469;49.024;8.246;2022-11-11T13:49:54;102095.78;;;8.76;100.00
22605;BME280;11469;49.024;8.246;2022-11-11T13:52:25;102090.47;;;8.60;100.00
22605;BME280;11469;49.024;8.246;2022-11-11T13:54:57;102095.84;;;8.43;100.00
22605;BME280;11469;49.024;8.246;2022-11-11T13:57:25;102094.69;;;8.44;100.00
22605;BME280;11469;49.024;8.246;2022-11-11T13:59:57;102102.66;;;8.37;100.00
22605;BME280;11469;49.024;8.246;2022-11-11T14:15:43;102111.16;;;8.46;100.00
22605;BME280;11469;49.024;8.246;2022-11-11T14:41:49;102110.63;;;8.44;100.00
22605;BME280;11469;49.024;8.246;2022-11-11T14:49:52;102110.34;;;8.26;100.00
22605;BME280;11469;49.024;8.246;2022-11-11T14:58:10;102108.00;;;8.34;100.00
22605;BME280;11469;49.024;8.246;2022-11-11T15:00:50;102097.06;;;8.37;100.00
22605;BME280;11469;49.024;8.246;2022-11-11T15:03:26;102095.72;;;8.35;100.00
22605;BME280;11469;49.024;8.246;2022-11-11T15:06:01;102099.78;;;8.23;100.00
22605;BME280;11469;49.024;8.246;2022-11-11T15:19:06;102101.59;;;8.14;100.00
22605;BME280;11469;49.024;8.246;2022-11-11T15:21:36;102095.41;;;8.17;100.00
22605;BME280;11469;49.024;8.246;2022-11-11T15:26:57;102104.78;;;8.08;100.00
22605;BME280;11469;49.024;8.246;2022-11-11T15:29:53;102105.63;;;7.89;100.00
22605;BME280;11469;49.024;8.246;2022-11-11T15:35:23;102094.25;;;7.86;100.00
22605;BME280;11469;49.024;8.246;2022-11-11T15:37:56;102099.31;;;7.84;100.00
22605;BME280;11469;49.024;8.246;2022-11-11T15:40:31;102101.88;;;7.80;100.00
22605;BME280;11469;49.024;8.246;2022-11-11T15:43:12;102092.75;;;7.75;100.00
22605;BME280;11469;49.024;8.246;2022-11-11T15:45:39;102101.94;;;7.75;100.00
22605;BME280;11469;49.024;8.246;2022-11-11T15:48:14;102101.09;;;7.75;100.00
22605;BME280;11469;49.024;8.246;2022-11-11T15:50:40;102102.09;;;7.84;100.00